createdAt,value
2022-09-12T00:02:14.018Z,21.52
2022-09-12T00:06:22.969Z,28.20
2022-09-12T00:10:26.967Z,28.30
2022-09-12T00:14:31.820Z,22.80
2022-09-12T00:18:35.368Z,26.58
2022-09-12T00:22:38.885Z,28.90
2022-09-12T00:26:41.895Z,22.05
2022-09-12T00:30:48.181Z,23.67
2022-09-12T00:34:51.136Z,27.30
2022-09-12T00:38:54.961Z,23.85
2022-09-12T00:42:57.940Z,28.25
2022-09-12T00:47:07.047Z,29.35
2022-09-12T00:51:11.074Z,33.47
2022-09-12T00:55:18.508Z,26.52
2022-09-12T00:59:27.152Z,29.75
2022-09-12T01:03:32.549Z,28.23
2022-09-12T01:07:39.867Z,30.77
2022-09-12T01:11:46.278Z,28.52
2022-09-12T01:15:49.411Z,23.63
2022-09-12T01:20:33.083Z,22.05
2022-09-12T01:24:52.949Z,24.67
2022-09-12T01:29:15.775Z,26.13
2022-09-12T01:33:40.036Z,26.10
2022-09-12T01:37:54.271Z,29.60
2022-09-12T01:42:10.634Z,28.13
2022-09-12T01:46:17.980Z,21.63
2022-09-12T01:50:26.988Z,21.45
2022-09-12T01:54:38.265Z,22.38
2022-09-12T01:58:46.756Z,27.38
2022-09-12T02:02:56.391Z,28.20
2022-09-12T02:07:07.441Z,25.88
2022-09-12T02:11:12.808Z,29.85
2022-09-12T02:15:19.424Z,21.55
2022-09-12T02:19:25.346Z,27.92
2022-09-12T02:23:32.691Z,32.72
2022-09-12T02:27:41.536Z,33.60
2022-09-12T02:31:47.663Z,26.83
2022-09-12T02:35:55.586Z,24.10
2022-09-12T02:40:01.770Z,37.22
2022-09-12T02:44:05.963Z,24.27
2022-09-12T02:48:13.918Z,26.60
2022-09-12T02:52:17.255Z,26.52
2022-09-12T02:56:27.079Z,28.27
2022-09-12T03:00:35.289Z,28.35
2022-09-12T03:04:53.392Z,26.45
2022-09-12T03:09:05.773Z,32.58
2022-09-12T03:13:23.257Z,30.15
2022-09-12T03:17:36.006Z,33.08
2022-09-12T03:21:47.298Z,31.80
2022-09-12T03:25:57.071Z,27.13
2022-09-12T03:30:02.136Z,32.47
2022-09-12T03:34:06.112Z,31.65
2022-09-12T03:38:12.064Z,32.95
2022-09-12T03:42:15.065Z,35.03
2022-09-12T03:46:19.403Z,33.58
2022-09-12T03:50:22.429Z,37.55
2022-09-12T03:54:25.669Z,36.97
2022-09-12T03:58:32.043Z,32.25
2022-09-12T04:02:36.777Z,107.65
2022-09-12T04:06:39.886Z,39.85
2022-09-12T04:10:43.148Z,42.78
2022-09-12T04:14:46.365Z,39.03
2022-09-12T04:18:50.685Z,52.30
2022-09-12T04:22:53.618Z,100.90
2022-09-12T04:26:56.698Z,56.55
2022-09-12T04:31:04.034Z,55.92
2022-09-12T04:35:08.873Z,50.90
2022-09-12T04:39:12.851Z,54.67
2022-09-12T04:43:16.152Z,52.75
2022-09-12T04:47:19.165Z,44.55
2022-09-12T04:51:27.918Z,57.67
2022-09-12T04:55:31.199Z,50.03
2022-09-12T04:59:35.028Z,92.53
2022-09-12T05:03:39.664Z,39.78
2022-09-12T05:07:44.308Z,52.88
2022-09-12T05:12:03.644Z,53.35
2022-09-12T05:16:08.853Z,48.42
2022-09-12T05:20:12.878Z,56.58
2022-09-12T05:24:17.364Z,63.70
2022-09-12T05:28:22.656Z,70.35
2022-09-12T05:32:25.741Z,62.60
2022-09-12T05:36:31.076Z,57.88
2022-09-12T05:40:35.840Z,60.25
2022-09-12T05:44:38.786Z,70.05
2022-09-12T05:48:43.518Z,65.10
2022-09-12T05:52:46.457Z,70.43
2022-09-12T05:56:51.138Z,84.50
2022-09-12T06:00:54.132Z,74.05
2022-09-12T06:04:57.123Z,72.45
2022-09-12T06:09:02.529Z,103.53
2022-09-12T06:13:06.816Z,73.40
2022-09-12T06:17:10.369Z,98.43
2022-09-12T06:21:14.488Z,97.45
2022-09-12T06:25:17.419Z,90.35
2022-09-12T06:29:22.065Z,89.72
2022-09-12T06:33:25.109Z,107.95
2022-09-12T06:37:28.530Z,102.00
2022-09-12T06:41:32.324Z,97.45
2022-09-12T06:45:37.249Z,96.50
2022-09-12T06:49:40.313Z,94.13
2022-09-12T06:53:44.488Z,101.82
2022-09-12T06:57:47.481Z,104.10
2022-09-12T07:01:52.087Z,112.25
2022-09-12T07:05:55.109Z,107.72
2022-09-12T07:09:58.532Z,88.15
2022-09-12T07:14:03.153Z,85.63
2022-09-12T07:18:07.913Z,62.75
2022-09-12T07:22:10.881Z,63.33
2022-09-12T07:26:15.998Z,58.72
2022-09-12T07:30:19.538Z,49.85
2022-09-12T07:34:23.890Z,40.97
2022-09-12T07:38:27.142Z,30.58
2022-09-12T07:42:31.062Z,29.85
2022-09-12T07:46:35.236Z,30.42
2022-09-12T07:50:43.210Z,26.77
2022-09-12T07:54:48.096Z,26.67
2022-09-12T07:58:51.293Z,23.65
2022-09-12T08:02:56.655Z,25.77
2022-09-12T08:07:01.059Z,23.52
2022-09-12T08:11:06.452Z,22.35
2022-09-12T08:15:10.285Z,21.10
2022-09-12T08:19:13.255Z,26.98
2022-09-12T08:23:18.091Z,20.27
2022-09-12T08:27:21.127Z,16.50
2022-09-12T08:31:26.795Z,18.92
2022-09-12T08:35:29.807Z,16.40
2022-09-12T08:39:34.633Z,18.33
2022-09-12T08:43:54.515Z,16.10
2022-09-12T08:48:03.195Z,17.58
2022-09-12T08:52:13.293Z,18.77
2022-09-12T08:56:17.753Z,17.45
2022-09-12T09:00:22.263Z,18.10
2022-09-12T09:04:44.087Z,17.48
2022-09-12T09:08:57.086Z,19.05
2022-09-12T09:13:09.739Z,18.70
2022-09-12T09:17:16.734Z,12.77
2022-09-12T09:21:25.088Z,13.70
2022-09-12T09:25:42.170Z,17.15
2022-09-12T09:29:49.998Z,12.38
2022-09-12T09:33:55.278Z,9.75
2022-09-12T09:38:18.967Z,8.75
2022-09-12T09:42:37.528Z,9.90
2022-09-12T09:46:42.067Z,10.73
2022-09-12T09:50:47.187Z,7.88
2022-09-12T09:54:54.301Z,8.00
2022-09-12T09:58:57.431Z,8.73
2022-09-12T10:03:20.491Z,8.35
2022-09-12T10:07:24.802Z,7.78
2022-09-12T10:11:30.360Z,8.05
2022-09-12T10:15:34.818Z,7.35
2022-09-12T10:19:40.959Z,5.45
2022-09-12T10:23:44.793Z,6.38
2022-09-12T10:27:55.159Z,4.80
2022-09-12T10:32:02.223Z,8.50
2022-09-12T10:36:07.198Z,5.65
2022-09-12T10:40:25.037Z,7.97
2022-09-12T10:44:29.640Z,14.82
2022-09-12T10:48:33.574Z,5.28
2022-09-12T10:52:38.170Z,4.47
2022-09-12T10:56:56.422Z,4.75
2022-09-12T11:01:11.018Z,7.47
2022-09-12T11:05:22.560Z,3.45
2022-09-12T11:09:33.250Z,4.63
2022-09-12T11:13:54.920Z,2.60
2022-09-12T11:18:06.436Z,4.20
2022-09-12T11:22:23.351Z,3.78
2022-09-12T11:26:43.715Z,3.28
2022-09-12T11:31:01.159Z,5.43
2022-09-12T11:35:17.288Z,3.83
2022-09-12T11:39:24.666Z,3.08
2022-09-12T11:43:37.975Z,4.28
2022-09-12T11:47:42.958Z,3.20
2022-09-12T11:51:51.797Z,7.13
2022-09-12T11:56:00.466Z,3.83
2022-09-12T12:00:08.849Z,3.95
2022-09-12T12:04:13.917Z,3.13
2022-09-12T12:08:17.195Z,3.90
2022-09-12T12:12:26.227Z,5.53
2022-09-12T12:16:34.689Z,4.25
2022-09-12T12:20:37.869Z,3.33
2022-09-12T12:24:57.367Z,3.05
2022-09-12T12:29:00.960Z,4.68
2022-09-12T12:33:33.048Z,2.60
2022-09-12T12:38:03.975Z,2.85
2022-09-12T12:42:06.998Z,4.75
2022-09-12T12:46:13.322Z,3.33
2022-09-12T12:50:26.789Z,5.40
2022-09-12T12:54:33.458Z,4.72
2022-09-12T12:58:40.670Z,6.68
2022-09-12T13:02:52.986Z,3.65
2022-09-12T13:07:07.901Z,2.85
2022-09-12T13:11:16.121Z,3.40
2022-09-12T13:15:48.682Z,3.17
2022-09-12T13:20:10.853Z,2.83
2022-09-12T13:24:19.282Z,3.58
2022-09-12T15:32:26.036Z,3.13
2022-09-12T15:36:30.994Z,2.67
2022-09-12T15:40:34.105Z,1.73
2022-09-12T15:44:37.128Z,3.10
2022-09-12T15:48:41.590Z,2.45
2022-09-12T15:52:44.866Z,2.13
2022-09-12T15:56:48.142Z,14.20
2022-09-12T16:00:51.144Z,2.08
2022-09-12T16:04:56.154Z,2.90
2022-09-12T16:08:59.078Z,3.85
2022-09-12T16:13:04.322Z,3.80
2022-09-12T16:17:07.916Z,1.70
2022-09-12T16:21:15.236Z,3.05
2022-09-12T16:25:18.628Z,2.10
2022-09-12T16:29:21.760Z,1.70
2022-09-12T16:33:25.448Z,6.05
2022-09-12T16:37:30.088Z,34.38
2022-09-12T16:41:33.145Z,2.72
2022-09-12T16:45:36.212Z,2.67
2022-09-12T16:49:39.372Z,3.10
2022-09-12T16:53:44.231Z,2.92
2022-09-12T16:57:49.520Z,1.92
2022-09-12T17:01:52.657Z,5.15
2022-09-12T17:05:59.641Z,1.55
2022-09-12T17:10:04.132Z,1.85
2022-09-12T17:14:09.050Z,2.28
2022-09-12T17:18:12.294Z,4.03
2022-09-12T17:22:15.455Z,2.67
2022-09-12T17:26:20.838Z,2.85
2022-09-12T17:30:23.876Z,3.47
2022-09-12T17:34:26.965Z,4.88
2022-09-12T17:38:32.840Z,3.88
2022-09-12T17:42:37.281Z,2.55
2022-09-12T17:46:40.875Z,5.70
2022-09-12T17:50:43.991Z,7.63
2022-09-12T17:54:47.050Z,6.88
2022-09-12T17:58:51.888Z,4.75
2022-09-12T18:02:55.602Z,5.03
2022-09-12T18:07:00.415Z,5.07
2022-09-12T18:11:05.547Z,3.97
2022-09-12T18:15:11.386Z,4.05
2022-09-12T18:19:16.153Z,3.60
2022-09-12T18:23:19.153Z,5.05
2022-09-12T18:27:22.558Z,4.60
2022-09-12T18:31:30.210Z,5.18
2022-09-12T18:35:33.336Z,3.75
2022-09-12T18:39:37.735Z,5.80
2022-09-12T18:43:40.958Z,6.50
2022-09-12T18:47:45.365Z,7.00
2022-09-12T18:51:48.550Z,6.32
2022-09-12T18:55:54.324Z,5.10
2022-09-12T18:59:59.664Z,6.20
2022-09-12T19:08:48.840Z,4.35
2022-09-12T19:19:00.177Z,6.88
2022-09-12T19:23:12.583Z,11.15
2022-09-12T19:27:16.876Z,9.43
2022-09-12T19:31:21.735Z,9.98
2022-09-12T19:35:24.728Z,5.43
2022-09-12T19:39:27.730Z,5.93
2022-09-12T19:43:33.060Z,5.95
2022-09-12T19:47:36.393Z,8.15
2022-09-12T19:51:39.539Z,6.10
2022-09-12T19:55:42.844Z,7.95
2022-09-12T19:59:48.119Z,5.65
2022-09-12T20:03:52.638Z,7.18
2022-09-12T20:07:55.690Z,10.25
2022-09-12T20:11:59.705Z,8.80
2022-09-12T20:16:09.130Z,7.60
2022-09-12T20:20:12.271Z,7.00
2022-09-12T20:24:15.910Z,15.15
2022-09-12T20:28:19.091Z,9.25
2022-09-12T20:32:23.635Z,10.32
2022-09-12T20:36:28.378Z,9.25
2022-09-12T20:40:31.413Z,8.88
2022-09-12T20:44:34.545Z,10.57
2022-09-12T20:48:39.646Z,8.32
2022-09-12T20:52:42.644Z,23.50
2022-09-12T20:56:45.773Z,8.30
2022-09-12T21:00:49.156Z,6.22
2022-09-12T21:04:54.206Z,6.70
2022-09-12T21:08:59.828Z,8.82
2022-09-12T21:13:03.319Z,6.97
2022-09-12T21:17:06.462Z,6.45
2022-09-12T21:21:13.266Z,8.73
2022-09-12T21:25:16.459Z,6.97
2022-09-12T21:29:19.591Z,10.95
2022-09-12T21:33:23.130Z,5.38
2022-09-12T21:37:27.656Z,4.53
2022-09-12T21:41:30.698Z,5.65
2022-09-12T21:45:34.258Z,4.43
2022-09-12T21:49:37.272Z,7.10
2022-09-12T21:53:42.453Z,5.25
2022-09-12T21:57:45.605Z,3.15
2022-09-12T22:01:48.695Z,2.75
2022-09-12T22:05:52.576Z,3.90
2022-09-12T22:09:57.119Z,4.18
2022-09-12T22:14:00.288Z,4.10
2022-09-12T22:18:03.270Z,4.45
2022-09-12T22:22:24.382Z,5.72
2022-09-12T22:26:29.292Z,6.15
2022-09-12T22:30:32.491Z,3.80
2022-09-12T22:34:35.482Z,6.85
2022-09-12T22:38:38.712Z,4.43
2022-09-12T22:42:43.057Z,3.83
2022-09-12T22:46:47.359Z,4.47
2022-09-12T22:50:50.657Z,3.78
2022-09-12T22:54:53.854Z,4.07
2022-09-12T22:58:58.572Z,4.15
2022-09-12T23:03:01.970Z,5.28
2022-09-12T23:07:05.247Z,3.70
2022-09-12T23:11:10.539Z,2.60
2022-09-12T23:15:15.262Z,3.25
2022-09-12T23:19:18.309Z,2.55
2022-09-12T23:23:21.285Z,4.45
2022-09-12T23:27:27.085Z,1.95
2022-09-12T23:31:32.733Z,2.70
2022-09-12T23:35:36.705Z,5.05
2022-09-12T23:39:39.779Z,3.35
2022-09-12T23:43:45.363Z,3.50
2022-09-12T23:47:49.713Z,3.58
2022-09-12T23:51:52.738Z,5.28
2022-09-12T23:55:55.791Z,4.65
2022-09-12T23:59:58.793Z,7.43
